sensor_id;sensor_type;location;lat;lon;timestamp;temperature;humidity
70068;DHT22;57425;51.616;6.680;2023-12-28T00:00:07;9.20;90.10
70068;DHT22;57425;51.616;6.680;2023-12-28T00:02:33;9.20;90.10
70068;DHT22;57425;51.616;6.680;2023-12-28T00:04:59;9.20;90.10
70068;DHT22;57425;51.616;6.680;2023-12-28T00:07:24;9.20;90.10
70068;DHT22;57425;51.616;6.680;2023-12-28T00:09:50;9.20;90.10
70068;DHT22;57425;51.616;6.680;2023-12-28T00:12:16;9.20;90.10
70068;DHT22;57425;51.616;6.680;2023-12-28T00:14:41;9.20;90.10
70068;DHT22;57425;51.616;6.680;2023-12-28T00:17:07;9.20;90.10
70068;DHT22;57425;51.616;6.680;2023-12-28T00:19:33;9.20;90.10
70068;DHT22;57425;51.616;6.680;2023-12-28T00:21:58;9.40;90.20
70068;DHT22;57425;51.616;6.680;2023-12-28T00:24:24;9.20;90.10
70068;DHT22;57425;51.616;6.680;2023-12-28T00:26:49;9.30;90.10
70068;DHT22;57425;51.616;6.680;2023-12-28T00:29:15;9.40;90.20
70068;DHT22;57425;51.616;6.680;2023-12-28T00:31:41;9.30;90.10
70068;DHT22;57425;51.616;6.680;2023-12-28T00:34:06;9.30;90.10
70068;DHT22;57425;51.616;6.680;2023-12-28T00:36:33;9.50;90.20
70068;DHT22;57425;51.616;6.680;2023-12-28T00:38:58;9.40;90.20
70068;DHT22;57425;51.616;6.680;2023-12-28T00:41:24;9.30;90.10
70068;DHT22;57425;51.616;6.680;2023-12-28T00:43:50;9.30;90.10
70068;DHT22;57425;51.616;6.680;2023-12-28T00:46:15;9.50;90.20
70068;DHT22;57425;51.616;6.680;2023-12-28T00:48:41;9.30;90.10
70068;DHT22;57425;51.616;6.680;2023-12-28T00:51:07;9.30;90.10
70068;DHT22;57425;51.616;6.680;2023-12-28T00:53:32;9.30;90.10
70068;DHT22;57425;51.616;6.680;2023-12-28T00:55:58;9.30;90.10
70068;DHT22;57425;51.616;6.680;2023-12-28T00:58:23;9.30;90.10
70068;DHT22;57425;51.616;6.680;2023-12-28T01:00:49;9.30;90.10
70068;DHT22;57425;51.616;6.680;2023-12-28T01:03:19;9.50;90.20
70068;DHT22;57425;51.616;6.680;2023-12-28T01:05:45;9.30;90.10
70068;DHT22;57425;51.616;6.680;2023-12-28T01:08:13;9.30;90.40
70068;DHT22;57425;51.616;6.680;2023-12-28T01:10:38;9.30;90.10
70068;DHT22;57425;51.616;6.680;2023-12-28T01:13:04;9.30;90.10
70068;DHT22;57425;51.616;6.680;2023-12-28T01:15:30;9.40;90.20
70068;DHT22;57425;51.616;6.680;2023-12-28T01:17:56;9.30;90.10
70068;DHT22;57425;51.616;6.680;2023-12-28T01:20:22;9.30;90.10
70068;DHT22;57425;51.616;6.680;2023-12-28T01:22:48;9.40;90.10
70068;DHT22;57425;51.616;6.680;2023-12-28T01:25:15;9.40;90.10
70068;DHT22;57425;51.616;6.680;2023-12-28T01:27:41;9.50;90.20
70068;DHT22;57425;51.616;6.680;2023-12-28T01:30:07;9.40;90.20
70068;DHT22;57425;51.616;6.680;2023-12-28T01:32:33;9.40;90.20
70068;DHT22;57425;51.616;6.680;2023-12-28T01:34:58;9.50;90.20
70068;DHT22;57425;51.616;6.680;2023-12-28T01:37:24;9.40;90.10
70068;DHT22;57425;51.616;6.680;2023-12-28T01:39:50;9.40;90.10
70068;DHT22;57425;51.616;6.680;2023-12-28T01:42:15;9.40;90.10
70068;DHT22;57425;51.616;6.680;2023-12-28T01:44:41;9.60;90.40
70068;DHT22;57425;51.616;6.680;2023-12-28T01:47:07;9.40;90.10
70068;DHT22;57425;51.616;6.680;2023-12-28T01:49:33;9.40;90.10
70068;DHT22;57425;51.616;6.680;2023-12-28T01:52:01;9.40;90.10
70068;DHT22;57425;51.616;6.680;2023-12-28T01:54:28;9.40;90.10
70068;DHT22;57425;51.616;6.680;2023-12-28T01:56:55;9.40;90.10
70068;DHT22;57425;51.616;6.680;2023-12-28T01:59:21;9.50;90.10
70068;DHT22;57425;51.616;6.680;2023-12-28T02:01:46;9.40;90.10
70068;DHT22;57425;51.616;6.680;2023-12-28T02:04:13;9.60;90.20
70068;DHT22;57425;51.616;6.680;2023-12-28T02:06:39;9.50;90.10
70068;DHT22;57425;51.616;6.680;2023-12-28T02:09:05;9.40;90.10
70068;DHT22;57425;51.616;6.680;2023-12-28T02:11:30;9.40;90.10
70068;DHT22;57425;51.616;6.680;2023-12-28T02:13:57;9.40;90.30
70068;DHT22;57425;51.616;6.680;2023-12-28T02:16:30;9.40;90.10
70068;DHT22;57425;51.616;6.680;2023-12-28T02:19:02;9.50;90.40
70068;DHT22;57425;51.616;6.680;2023-12-28T02:21:30;9.50;90.10
70068;DHT22;57425;51.616;6.680;2023-12-28T02:23:57;9.60;90.20
70068;DHT22;57425;51.616;6.680;2023-12-28T02:26:22;9.50;90.10
70068;DHT22;57425;51.616;6.680;2023-12-28T02:28:48;9.50;90.10
70068;DHT22;57425;51.616;6.680;2023-12-28T02:31:43;9.40;90.10
70068;DHT22;57425;51.616;6.680;2023-12-28T02:34:16;9.50;90.10
70068;DHT22;57425;51.616;6.680;2023-12-28T02:36:45;9.50;90.10
70068;DHT22;57425;51.616;6.680;2023-12-28T02:39:14;9.50;90.10
70068;DHT22;57425;51.616;6.680;2023-12-28T02:41:42;9.50;90.10
70068;DHT22;57425;51.616;6.680;2023-12-28T02:44:08;9.50;90.10
70068;DHT22;57425;51.616;6.680;2023-12-28T02:46:35;9.50;90.10
70068;DHT22;57425;51.616;6.680;2023-12-28T02:49:01;9.70;90.20
70068;DHT22;57425;51.616;6.680;2023-12-28T02:51:27;9.50;90.10
70068;DHT22;57425;51.616;6.680;2023-12-28T02:53:52;9.50;90.10
70068;DHT22;57425;51.616;6.680;2023-12-28T02:56:18;9.70;90.20
70068;DHT22;57425;51.616;6.680;2023-12-28T02:58:43;9.50;90.30
70068;DHT22;57425;51.616;6.680;2023-12-28T03:01:09;9.50;90.10
70068;DHT22;57425;51.616;6.680;2023-12-28T03:03:35;9.50;90.10
70068;DHT22;57425;51.616;6.680;2023-12-28T03:06:00;9.50;90.10
70068;DHT22;57425;51.616;6.680;2023-12-28T03:08:26;9.50;90.10
70068;DHT22;57425;51.616;6.680;2023-12-28T03:10:51;9.70;90.40
70068;DHT22;57425;51.616;6.680;2023-12-28T03:13:18;9.50;90.10
70068;DHT22;57425;51.616;6.680;2023-12-28T03:15:45;9.50;90.10
70068;DHT22;57425;51.616;6.680;2023-12-28T03:18:10;9.60;90.10
70068;DHT22;57425;51.616;6.680;2023-12-28T03:20:36;9.60;90.10
70068;DHT22;57425;51.616;6.680;2023-12-28T03:23:01;9.60;90.10
70068;DHT22;57425;51.616;6.680;2023-12-28T03:25:27;9.60;90.10
70068;DHT22;57425;51.616;6.680;2023-12-28T03:27:53;9.60;90.10
70068;DHT22;57425;51.616;6.680;2023-12-28T03:30:20;9.60;90.10
70068;DHT22;57425;51.616;6.680;2023-12-28T03:32:45;9.60;90.30
70068;DHT22;57425;51.616;6.680;2023-12-28T03:35:11;9.60;90.10
70068;DHT22;57425;51.616;6.680;2023-12-28T03:37:37;9.60;90.10
70068;DHT22;57425;51.616;6.680;2023-12-28T03:40:03;9.70;90.10
70068;DHT22;57425;51.616;6.680;2023-12-28T03:42:29;9.60;90.10
70068;DHT22;57425;51.616;6.680;2023-12-28T03:44:54;9.60;90.10
70068;DHT22;57425;51.616;6.680;2023-12-28T03:47:20;9.60;90.10
70068;DHT22;57425;51.616;6.680;2023-12-28T03:49:47;9.60;90.10
70068;DHT22;57425;51.616;6.680;2023-12-28T03:52:12;9.60;90.10
70068;DHT22;57425;51.616;6.680;2023-12-28T03:54:39;9.80;90.10
70068;DHT22;57425;51.616;6.680;2023-12-28T03:57:05;9.70;90.10
70068;DHT22;57425;51.616;6.680;2023-12-28T03:59:30;9.60;90.10
70068;DHT22;57425;51.616;6.680;2023-12-28T04:01:56;9.60;90.10
70068;DHT22;57425;51.616;6.680;2023-12-28T04:04:21;9.60;90.10
70068;DHT22;57425;51.616;6.680;2023-12-28T04:06:47;9.60;90.10
70068;DHT22;57425;51.616;6.680;2023-12-28T04:09:13;9.60;90.10
70068;DHT22;57425;51.616;6.680;2023-12-28T04:11:38;9.60;90.10
70068;DHT22;57425;51.616;6.680;2023-12-28T04:14:04;9.60;90.10
70068;DHT22;57425;51.616;6.680;2023-12-28T04:16:29;9.70;90.10
70068;DHT22;57425;51.616;6.680;2023-12-28T04:18:55;9.80;90.10
70068;DHT22;57425;51.616;6.680;2023-12-28T04:21:21;9.60;90.10
70068;DHT22;57425;51.616;6.680;2023-12-28T04:23:47;9.70;90.10
70068;DHT22;57425;51.616;6.680;2023-12-28T04:26:13;9.70;90.10
70068;DHT22;57425;51.616;6.680;2023-12-28T04:28:39;9.70;90.10
70068;DHT22;57425;51.616;6.680;2023-12-28T04:31:06;9.60;90.10
70068;DHT22;57425;51.616;6.680;2023-12-28T04:33:32;9.70;90.10
70068;DHT22;57425;51.616;6.680;2023-12-28T04:36:01;9.90;90.10
70068;DHT22;57425;51.616;6.680;2023-12-28T04:38:28;9.70;90.10
70068;DHT22;57425;51.616;6.680;2023-12-28T04:40:54;9.70;90.10
70068;DHT22;57425;51.616;6.680;2023-12-28T04:43:19;9.70;90.10
70068;DHT22;57425;51.616;6.680;2023-12-28T04:45:45;9.90;90.10
70068;DHT22;57425;51.616;6.680;2023-12-28T04:48:11;9.70;90.10
70068;DHT22;57425;51.616;6.680;2023-12-28T04:50:37;9.80;90.10
70068;DHT22;57425;51.616;6.680;2023-12-28T04:53:03;9.70;90.10
70068;DHT22;57425;51.616;6.680;2023-12-28T04:55:28;9.70;90.10
70068;DHT22;57425;51.616;6.680;2023-12-28T04:57:54;9.70;90.10
70068;DHT22;57425;51.616;6.680;2023-12-28T05:00:19;9.70;90.10
70068;DHT22;57425;51.616;6.680;2023-12-28T05:02:45;9.80;90.10
70068;DHT22;57425;51.616;6.680;2023-12-28T05:05:12;9.70;90.00
70068;DHT22;57425;51.616;6.680;2023-12-28T05:07:38;9.70;90.10
70068;DHT22;57425;51.616;6.680;2023-12-28T05:10:04;9.70;90.10
70068;DHT22;57425;51.616;6.680;2023-12-28T05:12:31;9.70;90.10
70068;DHT22;57425;51.616;6.680;2023-12-28T05:14:57;9.90;90.10
70068;DHT22;57425;51.616;6.680;2023-12-28T05:17:22;9.70;90.10
70068;DHT22;57425;51.616;6.680;2023-12-28T05:19:49;9.70;90.10
70068;DHT22;57425;51.616;6.680;2023-12-28T05:22:14;9.70;90.00
70068;DHT22;57425;51.616;6.680;2023-12-28T05:24:40;9.70;90.10
70068;DHT22;57425;51.616;6.680;2023-12-28T05:27:05;9.80;90.10
70068;DHT22;57425;51.616;6.680;2023-12-28T05:29:31;9.80;90.10
70068;DHT22;57425;51.616;6.680;2023-12-28T05:31:56;9.70;90.10
70068;DHT22;57425;51.616;6.680;2023-12-28T05:34:22;9.80;90.10
70068;DHT22;57425;51.616;6.680;2023-12-28T05:36:48;9.90;90.10
70068;DHT22;57425;51.616;6.680;2023-12-28T05:39:13;9.80;90.10
70068;DHT22;57425;51.616;6.680;2023-12-28T05:41:39;9.80;90.10
70068;DHT22;57425;51.616;6.680;2023-12-28T05:44:05;9.80;90.10
70068;DHT22;57425;51.616;6.680;2023-12-28T05:46:31;9.80;90.00
70068;DHT22;57425;51.616;6.680;2023-12-28T05:48:57;9.80;90.00
70068;DHT22;57425;51.616;6.680;2023-12-28T05:51:23;9.80;90.00
70068;DHT22;57425;51.616;6.680;2023-12-28T05:53:49;9.80;90.00
70068;DHT22;57425;51.616;6.680;2023-12-28T05:56:14;9.80;90.00
70068;DHT22;57425;51.616;6.680;2023-12-28T05:58:40;9.80;90.00
70068;DHT22;57425;51.616;6.680;2023-12-28T06:01:06;9.80;90.10
70068;DHT22;57425;51.616;6.680;2023-12-28T06:03:32;9.90;90.00
70068;DHT22;57425;51.616;6.680;2023-12-28T06:05:58;9.80;90.00
70068;DHT22;57425;51.616;6.680;2023-12-28T06:08:23;9.80;90.00
70068;DHT22;57425;51.616;6.680;2023-12-28T06:10:49;9.90;90.00
70068;DHT22;57425;51.616;6.680;2023-12-28T06:13:15;9.80;90.30
70068;DHT22;57425;51.616;6.680;2023-12-28T06:15:41;9.90;90.00
70068;DHT22;57425;51.616;6.680;2023-12-28T06:18:06;9.90;90.00
70068;DHT22;57425;51.616;6.680;2023-12-28T06:20:32;9.90;90.00
70068;DHT22;57425;51.616;6.680;2023-12-28T06:22:58;10.10;90.10
70068;DHT22;57425;51.616;6.680;2023-12-28T06:25:23;9.90;90.10
70068;DHT22;57425;51.616;6.680;2023-12-28T06:27:49;9.90;90.00
70068;DHT22;57425;51.616;6.680;2023-12-28T06:30:15;9.90;90.00
70068;DHT22;57425;51.616;6.680;2023-12-28T06:32:40;9.90;90.00
70068;DHT22;57425;51.616;6.680;2023-12-28T06:35:06;9.90;90.00
70068;DHT22;57425;51.616;6.680;2023-12-28T06:37:32;9.90;90.00
70068;DHT22;57425;51.616;6.680;2023-12-28T06:39:58;9.90;90.00
70068;DHT22;57425;51.616;6.680;2023-12-28T06:42:23;9.90;90.00
70068;DHT22;57425;51.616;6.680;2023-12-28T06:44:49;9.90;90.30
70068;DHT22;57425;51.616;6.680;2023-12-28T06:47:15;9.90;90.00
70068;DHT22;57425;51.616;6.680;2023-12-28T06:49:40;9.90;90.00
70068;DHT22;57425;51.616;6.680;2023-12-28T06:52:06;9.90;90.00
70068;DHT22;57425;51.616;6.680;2023-12-28T06:54:33;9.90;90.00
70068;DHT22;57425;51.616;6.680;2023-12-28T06:56:59;9.90;90.00
70068;DHT22;57425;51.616;6.680;2023-12-28T06:59:24;9.90;90.00
70068;DHT22;57425;51.616;6.680;2023-12-28T07:01:50;10.00;90.10
70068;DHT22;57425;51.616;6.680;2023-12-28T07:04:16;9.90;90.00
70068;DHT22;57425;51.616;6.680;2023-12-28T07:06:42;10.00;90.10
70068;DHT22;57425;51.616;6.680;2023-12-28T07:09:08;9.90;90.00
70068;DHT22;57425;51.616;6.680;2023-12-28T07:11:34;9.90;90.00
70068;DHT22;57425;51.616;6.680;2023-12-28T07:13:59;9.90;90.00
70068;DHT22;57425;51.616;6.680;2023-12-28T07:16:25;9.90;90.00
70068;DHT22;57425;51.616;6.680;2023-12-28T07:18:52;10.20;90.10
70068;DHT22;57425;51.616;6.680;2023-12-28T07:21:18;10.00;90.00
70068;DHT22;57425;51.616;6.680;2023-12-28T07:23:43;10.00;90.00
70068;DHT22;57425;51.616;6.680;2023-12-28T07:26:14;10.20;90.10
70068;DHT22;57425;51.616;6.680;2023-12-28T07:28:40;10.00;90.00
70068;DHT22;57425;51.616;6.680;2023-12-28T07:31:08;10.00;90.00
70068;DHT22;57425;51.616;6.680;2023-12-28T07:33:33;10.00;90.00
70068;DHT22;57425;51.616;6.680;2023-12-28T07:35:59;10.00;90.30
70068;DHT22;57425;51.616;6.680;2023-12-28T07:38:28;10.00;90.00
70068;DHT22;57425;51.616;6.680;2023-12-28T07:40:53;10.00;90.00
70068;DHT22;57425;51.616;6.680;2023-12-28T07:43:19;10.20;90.10
70068;DHT22;57425;51.616;6.680;2023-12-28T07:45:44;10.00;90.30
70068;DHT22;57425;51.616;6.680;2023-12-28T07:48:10;10.00;90.30
70068;DHT22;57425;51.616;6.680;2023-12-28T07:50:36;10.00;90.00
70068;DHT22;57425;51.616;6.680;2023-12-28T07:53:03;10.00;90.00
70068;DHT22;57425;51.616;6.680;2023-12-28T07:55:28;10.00;90.00
70068;DHT22;57425;51.616;6.680;2023-12-28T07:57:54;10.00;90.00
70068;DHT22;57425;51.616;6.680;2023-12-28T08:00:21;10.00;90.00
70068;DHT22;57425;51.616;6.680;2023-12-28T08:02:47;10.00;90.00
70068;DHT22;57425;51.616;6.680;2023-12-28T08:05:12;10.00;90.00
70068;DHT22;57425;51.616;6.680;2023-12-28T08:07:38;10.00;90.00
70068;DHT22;57425;51.616;6.680;2023-12-28T08:10:04;10.00;90.00
70068;DHT22;57425;51.616;6.680;2023-12-28T08:12:31;10.00;90.00
70068;DHT22;57425;51.616;6.680;2023-12-28T08:14:56;10.00;90.00
70068;DHT22;57425;51.616;6.680;2023-12-28T08:17:22;10.00;90.00
70068;DHT22;57425;51.616;6.680;2023-12-28T08:19:48;10.10;90.00
70068;DHT22;57425;51.616;6.680;2023-12-28T08:22:13;10.00;90.00
70068;DHT22;57425;51.616;6.680;2023-12-28T08:24:39;10.00;90.00
70068;DHT22;57425;51.616;6.680;2023-12-28T08:27:05;10.10;90.00
70068;DHT22;57425;51.616;6.680;2023-12-28T08:29:31;10.00;90.00
70068;DHT22;57425;51.616;6.680;2023-12-28T08:31:56;10.00;90.00
70068;DHT22;57425;51.616;6.680;2023-12-28T08:34:22;10.00;90.00
70068;DHT22;57425;51.616;6.680;2023-12-28T08:36:48;10.10;90.00
70068;DHT22;57425;51.616;6.680;2023-12-28T08:39:13;10.10;90.00
70068;DHT22;57425;51.616;6.680;2023-12-28T08:41:39;10.00;90.00
70068;DHT22;57425;51.616;6.680;2023-12-28T08:44:04;10.00;90.00
70068;DHT22;57425;51.616;6.680;2023-12-28T08:46:30;10.10;90.00
70068;DHT22;57425;51.616;6.680;2023-12-28T08:48:56;10.10;90.00
70068;DHT22;57425;51.616;6.680;2023-12-28T08:51:22;10.10;90.00
70068;DHT22;57425;51.616;6.680;2023-12-28T08:53:48;10.10;90.00
70068;DHT22;57425;51.616;6.680;2023-12-28T08:56:20;10.10;90.00
70068;DHT22;57425;51.616;6.680;2023-12-28T08:58:47;10.10;90.00
70068;DHT22;57425;51.616;6.680;2023-12-28T09:01:23;10.10;90.00
70068;DHT22;57425;51.616;6.680;2023-12-28T09:03:51;10.10;90.00
70068;DHT22;57425;51.616;6.680;2023-12-28T09:06:20;10.10;90.00
70068;DHT22;57425;51.616;6.680;2023-12-28T09:08:49;10.10;90.00
70068;DHT22;57425;51.616;6.680;2023-12-28T09:11:16;10.10;90.00
70068;DHT22;57425;51.616;6.680;2023-12-28T09:13:42;10.10;90.00
70068;DHT22;57425;51.616;6.680;2023-12-28T09:16:09;10.10;90.00
70068;DHT22;57425;51.616;6.680;2023-12-28T09:18:36;10.10;90.00
70068;DHT22;57425;51.616;6.680;2023-12-28T09:21:06;10.10;90.00
70068;DHT22;57425;51.616;6.680;2023-12-28T09:23:32;10.10;90.00
70068;DHT22;57425;51.616;6.680;2023-12-28T09:25:59;10.10;90.00
70068;DHT22;57425;51.616;6.680;2023-12-28T09:28:25;10.10;90.00
70068;DHT22;57425;51.616;6.680;2023-12-28T09:30:51;10.30;90.00
70068;DHT22;57425;51.616;6.680;2023-12-28T09:33:16;10.20;90.00
70068;DHT22;57425;51.616;6.680;2023-12-28T09:35:42;10.10;90.00
70068;DHT22;57425;51.616;6.680;2023-12-28T09:38:08;10.10;90.00
70068;DHT22;57425;51.616;6.680;2023-12-28T09:40:35;10.20;90.00
70068;DHT22;57425;51.616;6.680;2023-12-28T09:43:19;10.20;90.00
70068;DHT22;57425;51.616;6.680;2023-12-28T09:45:47;10.30;90.00
70068;DHT22;57425;51.616;6.680;2023-12-28T09:48:16;10.40;90.10
70068;DHT22;57425;51.616;6.680;2023-12-28T09:50:43;10.20;90.00
70068;DHT22;57425;51.616;6.680;2023-12-28T09:53:09;10.20;90.20
70068;DHT22;57425;51.616;6.680;2023-12-28T09:55:35;10.10;90.00
70068;DHT22;57425;51.616;6.680;2023-12-28T09:58:03;10.10;90.00
70068;DHT22;57425;51.616;6.680;2023-12-28T10:00:31;10.20;90.00
70068;DHT22;57425;51.616;6.680;2023-12-28T10:02:57;10.20;90.00
70068;DHT22;57425;51.616;6.680;2023-12-28T10:05:23;10.20;90.00
70068;DHT22;57425;51.616;6.680;2023-12-28T10:07:50;10.20;90.00
70068;DHT22;57425;51.616;6.680;2023-12-28T10:10:16;10.20;90.20
70068;DHT22;57425;51.616;6.680;2023-12-28T10:12:42;10.20;90.00
70068;DHT22;57425;51.616;6.680;2023-12-28T10:15:09;10.20;90.00
70068;DHT22;57425;51.616;6.680;2023-12-28T10:17:35;10.20;90.00
70068;DHT22;57425;51.616;6.680;2023-12-28T10:20:02;10.20;90.00
70068;DHT22;57425;51.616;6.680;2023-12-28T10:22:32;10.20;90.00
70068;DHT22;57425;51.616;6.680;2023-12-28T10:24:58;10.40;93.40
70068;DHT22;57425;51.616;6.680;2023-12-28T10:27:26;10.20;90.00
70068;DHT22;57425;51.616;6.680;2023-12-28T10:29:53;10.20;90.00
70068;DHT22;57425;51.616;6.680;2023-12-28T10:32:20;10.20;90.00
70068;DHT22;57425;51.616;6.680;2023-12-28T10:34:46;10.40;90.00
70068;DHT22;57425;51.616;6.680;2023-12-28T10:37:11;10.30;90.00
70068;DHT22;57425;51.616;6.680;2023-12-28T10:39:41;10.30;90.00
70068;DHT22;57425;51.616;6.680;2023-12-28T10:42:12;10.30;90.00
70068;DHT22;57425;51.616;6.680;2023-12-28T10:44:42;10.30;90.00
70068;DHT22;57425;51.616;6.680;2023-12-28T10:47:15;10.30;90.00
70068;DHT22;57425;51.616;6.680;2023-12-28T10:49:42;10.30;90.00
70068;DHT22;57425;51.616;6.680;2023-12-28T10:52:11;10.20;90.20
70068;DHT22;57425;51.616;6.680;2023-12-28T10:54:43;10.30;90.30
70068;DHT22;57425;51.616;6.680;2023-12-28T10:57:29;10.30;90.00
70068;DHT22;57425;51.616;6.680;2023-12-28T11:02:38;10.30;90.00
70068;DHT22;57425;51.616;6.680;2023-12-28T11:05:07;10.30;90.00
70068;DHT22;57425;51.616;6.680;2023-12-28T11:07:33;10.30;90.30
70068;DHT22;57425;51.616;6.680;2023-12-28T11:10:01;10.40;90.50
70068;DHT22;57425;51.616;6.680;2023-12-28T11:12:29;10.30;91.10
70068;DHT22;57425;51.616;6.680;2023-12-28T11:14:57;10.30;90.90
70068;DHT22;57425;51.616;6.680;2023-12-28T11:17:23;10.30;90.00
70068;DHT22;57425;51.616;6.680;2023-12-28T11:19:53;10.30;90.00
70068;DHT22;57425;51.616;6.680;2023-12-28T11:22:21;10.30;90.00
70068;DHT22;57425;51.616;6.680;2023-12-28T11:24:47;10.30;90.00
70068;DHT22;57425;51.616;6.680;2023-12-28T11:27:13;10.30;90.00
70068;DHT22;57425;51.616;6.680;2023-12-28T11:29:41;10.30;90.20
70068;DHT22;57425;51.616;6.680;2023-12-28T11:32:08;10.30;90.00
70068;DHT22;57425;51.616;6.680;2023-12-28T11:34:34;10.40;90.00
70068;DHT22;57425;51.616;6.680;2023-12-28T11:37:12;10.40;90.00
70068;DHT22;57425;51.616;6.680;2023-12-28T11:39:41;10.40;90.00
70068;DHT22;57425;51.616;6.680;2023-12-28T11:42:09;10.40;90.00
70068;DHT22;57425;51.616;6.680;2023-12-28T11:44:42;10.40;90.00
70068;DHT22;57425;51.616;6.680;2023-12-28T11:47:13;10.40;90.00
70068;DHT22;57425;51.616;6.680;2023-12-28T11:49:39;10.40;90.00
70068;DHT22;57425;51.616;6.680;2023-12-28T11:52:09;10.40;90.00
70068;DHT22;57425;51.616;6.680;2023-12-28T11:54:37;10.40;90.00
70068;DHT22;57425;51.616;6.680;2023-12-28T11:57:03;10.40;90.20
70068;DHT22;57425;51.616;6.680;2023-12-28T11:59:28;10.40;90.00
70068;DHT22;57425;51.616;6.680;2023-12-28T12:01:54;10.40;90.00
70068;DHT22;57425;51.616;6.680;2023-12-28T12:04:22;10.40;90.00
70068;DHT22;57425;51.616;6.680;2023-12-28T12:06:48;10.40;90.00
70068;DHT22;57425;51.616;6.680;2023-12-28T12:09:17;10.40;90.00
70068;DHT22;57425;51.616;6.680;2023-12-28T12:11:48;10.40;90.00
70068;DHT22;57425;51.616;6.680;2023-12-28T12:14:13;10.40;90.00
70068;DHT22;57425;51.616;6.680;2023-12-28T12:16:40;10.60;90.00
70068;DHT22;57425;51.616;6.680;2023-12-28T12:19:06;10.40;90.20
70068;DHT22;57425;51.616;6.680;2023-12-28T12:21:36;10.60;90.00
70068;DHT22;57425;51.616;6.680;2023-12-28T12:24:01;10.50;90.00
70068;DHT22;57425;51.616;6.680;2023-12-28T12:26:30;10.50;90.00
70068;DHT22;57425;51.616;6.680;2023-12-28T12:28:56;10.50;90.00
70068;DHT22;57425;51.616;6.680;2023-12-28T12:31:24;10.50;90.00
70068;DHT22;57425;51.616;6.680;2023-12-28T12:33:50;10.50;90.00
70068;DHT22;57425;51.616;6.680;2023-12-28T12:36:16;10.50;90.00
70068;DHT22;57425;51.616;6.680;2023-12-28T12:38:42;10.50;90.00
70068;DHT22;57425;51.616;6.680;2023-12-28T12:41:10;10.50;90.00
70068;DHT22;57425;51.616;6.680;2023-12-28T12:43:37;10.50;90.00
70068;DHT22;57425;51.616;6.680;2023-12-28T12:46:04;10.50;90.00
70068;DHT22;57425;51.616;6.680;2023-12-28T12:48:29;10.50;90.00
70068;DHT22;57425;51.616;6.680;2023-12-28T12:50:55;10.50;90.00
70068;DHT22;57425;51.616;6.680;2023-12-28T12:53:22;10.50;90.00
70068;DHT22;57425;51.616;6.680;2023-12-28T12:55:47;10.60;90.00
70068;DHT22;57425;51.616;6.680;2023-12-28T12:58:14;10.60;90.00
70068;DHT22;57425;51.616;6.680;2023-12-28T13:00:42;10.50;90.00
70068;DHT22;57425;51.616;6.680;2023-12-28T13:03:10;10.60;90.00
70068;DHT22;57425;51.616;6.680;2023-12-28T13:05:36;10.60;90.00
70068;DHT22;57425;51.616;6.680;2023-12-28T13:08:03;10.60;90.00
70068;DHT22;57425;51.616;6.680;2023-12-28T13:10:30;10.60;90.00
70068;DHT22;57425;51.616;6.680;2023-12-28T13:12:56;10.60;90.00
70068;DHT22;57425;51.616;6.680;2023-12-28T13:15:21;10.60;90.00
70068;DHT22;57425;51.616;6.680;2023-12-28T13:17:47;10.60;90.20
70068;DHT22;57425;51.616;6.680;2023-12-28T13:20:13;10.60;90.00
70068;DHT22;57425;51.616;6.680;2023-12-28T13:22:39;10.60;90.00
70068;DHT22;57425;51.616;6.680;2023-12-28T13:25:05;10.60;90.00
70068;DHT22;57425;51.616;6.680;2023-12-28T13:27:31;10.60;90.00
70068;DHT22;57425;51.616;6.680;2023-12-28T13:29:57;10.60;90.00
70068;DHT22;57425;51.616;6.680;2023-12-28T13:32:23;10.60;90.00
70068;DHT22;57425;51.616;6.680;2023-12-28T13:34:49;10.60;90.00
70068;DHT22;57425;51.616;6.680;2023-12-28T13:37:16;10.60;90.00
70068;DHT22;57425;51.616;6.680;2023-12-28T13:39:42;10.60;90.00
70068;DHT22;57425;51.616;6.680;2023-12-28T13:42:07;10.70;90.00
70068;DHT22;57425;51.616;6.680;2023-12-28T13:44:34;10.70;90.00
70068;DHT22;57425;51.616;6.680;2023-12-28T13:47:03;10.70;90.00
70068;DHT22;57425;51.616;6.680;2023-12-28T13:49:31;10.70;90.00
70068;DHT22;57425;51.616;6.680;2023-12-28T13:51:57;10.70;90.00
70068;DHT22;57425;51.616;6.680;2023-12-28T13:54:23;10.70;90.00
70068;DHT22;57425;51.616;6.680;2023-12-28T13:56:48;10.70;90.00
70068;DHT22;57425;51.616;6.680;2023-12-28T13:59:14;10.70;90.00
70068;DHT22;57425;51.616;6.680;2023-12-28T14:01:40;10.70;90.00
70068;DHT22;57425;51.616;6.680;2023-12-28T14:04:06;10.70;90.00
70068;DHT22;57425;51.616;6.680;2023-12-28T14:06:32;10.70;90.00
70068;DHT22;57425;51.616;6.680;2023-12-28T14:08:58;10.70;90.00
70068;DHT22;57425;51.616;6.680;2023-12-28T14:11:24;10.70;90.00
70068;DHT22;57425;51.616;6.680;2023-12-28T14:13:50;10.70;90.00
70068;DHT22;57425;51.616;6.680;2023-12-28T14:16:16;10.70;90.00
70068;DHT22;57425;51.616;6.680;2023-12-28T14:18:41;10.70;90.00
70068;DHT22;57425;51.616;6.680;2023-12-28T14:21:08;10.70;90.00
70068;DHT22;57425;51.616;6.680;2023-12-28T14:23:35;10.70;90.00
70068;DHT22;57425;51.616;6.680;2023-12-28T14:26:11;10.70;90.00
70068;DHT22;57425;51.616;6.680;2023-12-28T14:28:38;10.70;90.00
70068;DHT22;57425;51.616;6.680;2023-12-28T14:31:04;10.70;90.00
70068;DHT22;57425;51.616;6.680;2023-12-28T14:33:29;10.80;90.00
70068;DHT22;57425;51.616;6.680;2023-12-28T14:35:57;10.70;90.00
70068;DHT22;57425;51.616;6.680;2023-12-28T14:38:23;10.80;90.00
70068;DHT22;57425;51.616;6.680;2023-12-28T14:40:48;10.70;90.00
70068;DHT22;57425;51.616;6.680;2023-12-28T14:43:17;10.80;90.00
70068;DHT22;57425;51.616;6.680;2023-12-28T14:45:43;10.70;89.90
70068;DHT22;57425;51.616;6.680;2023-12-28T14:48:08;10.70;89.90
70068;DHT22;57425;51.616;6.680;2023-12-28T14:50:34;10.80;90.00
70068;DHT22;57425;51.616;6.680;2023-12-28T14:53:01;10.80;90.00
70068;DHT22;57425;51.616;6.680;2023-12-28T14:55:26;10.80;90.00
70068;DHT22;57425;51.616;6.680;2023-12-28T14:57:53;10.70;89.90
70068;DHT22;57425;51.616;6.680;2023-12-28T15:00:19;10.80;90.00
70068;DHT22;57425;51.616;6.680;2023-12-28T15:02:44;10.80;89.90
70068;DHT22;57425;51.616;6.680;2023-12-28T15:05:10;10.80;89.90
70068;DHT22;57425;51.616;6.680;2023-12-28T15:07:38;10.80;89.90
70068;DHT22;57425;51.616;6.680;2023-12-28T15:10:04;10.80;90.00
70068;DHT22;57425;51.616;6.680;2023-12-28T15:12:30;10.80;90.00
70068;DHT22;57425;51.616;6.680;2023-12-28T15:14:56;10.80;90.00
70068;DHT22;57425;51.616;6.680;2023-12-28T15:17:22;10.80;89.90
70068;DHT22;57425;51.616;6.680;2023-12-28T15:19:49;10.80;89.90
70068;DHT22;57425;51.616;6.680;2023-12-28T15:22:14;10.80;89.90
70068;DHT22;57425;51.616;6.680;2023-12-28T15:24:40;10.80;89.90
70068;DHT22;57425;51.616;6.680;2023-12-28T15:27:06;10.80;89.90
70068;DHT22;57425;51.616;6.680;2023-12-28T15:29:33;10.80;89.90
70068;DHT22;57425;51.616;6.680;2023-12-28T15:32:00;10.80;89.90
70068;DHT22;57425;51.616;6.680;2023-12-28T15:34:25;10.80;89.90